createdAt,value
2023-01-30T00:03:07.313Z,99175.77
2023-01-30T00:08:10.836Z,99153.88
2023-01-30T00:13:15.379Z,99133.58
2023-01-30T00:18:18.781Z,99122.46
2023-01-30T00:23:22.299Z,99117.43
2023-01-30T00:28:26.136Z,99098.29
2023-01-30T00:33:31.009Z,99089.88
2023-01-30T00:38:34.494Z,99072.15
2023-01-30T00:43:56.435Z,99063.79
2023-01-30T00:48:59.946Z,99057.63
2023-01-30T00:54:04.138Z,99047.36
2023-01-30T00:59:07.489Z,99041.89
2023-01-30T01:04:11.209Z,99028.85
2023-01-30T01:09:14.931Z,99022.04
2023-01-30T01:14:18.342Z,99012.25
2023-01-30T01:19:22.064Z,99003.48
2023-01-30T01:24:25.578Z,98990.53
2023-01-30T01:29:28.991Z,98979.38
2023-01-30T01:34:32.714Z,98957.71
2023-01-30T01:39:54.866Z,98952.33
2023-01-30T01:45:14.435Z,98952.16
2023-01-30T01:50:27.391Z,98938.13
2023-01-30T01:55:32.241Z,98934.05
2023-01-30T02:00:35.860Z,98906.83
2023-01-30T02:05:44.903Z,98886.21
2023-01-30T02:10:51.286Z,98865.61
2023-01-30T02:15:58.495Z,98850.77
2023-01-30T02:21:43.888Z,98824.84
2023-01-30T02:27:41.372Z,98821.63
2023-01-30T02:32:50.923Z,98797.45
2023-01-30T02:38:09.801Z,98776.70
2023-01-30T02:43:45.066Z,98771.56
2023-01-30T02:48:54.146Z,98755.20
2023-01-30T02:53:59.366Z,98742.91
2023-01-30T02:59:09.059Z,98745.23
2023-01-30T03:04:35.987Z,98738.85
2023-01-30T03:10:05.921Z,98732.48
2023-01-30T03:15:18.043Z,98706.27
2023-01-30T03:20:22.066Z,98693.05
2023-01-30T03:25:28.874Z,98690.02
2023-01-30T03:30:32.470Z,98678.20
2023-01-30T03:35:36.618Z,98656.23
2023-01-30T03:40:40.121Z,98640.98
2023-01-30T03:45:43.748Z,98624.24
2023-01-30T03:50:47.254Z,98624.83
2023-01-30T03:55:50.870Z,98636.54
2023-01-30T04:00:57.583Z,98611.32
2023-01-30T04:06:01.280Z,98594.05
2023-01-30T04:11:05.013Z,98594.30
2023-01-30T04:16:19.029Z,98595.65
2023-01-30T04:21:22.680Z,98588.91
2023-01-30T04:26:26.212Z,98570.78
2023-01-30T04:31:29.785Z,98551.11
2023-01-30T04:36:33.534Z,98529.81
2023-01-30T04:41:37.049Z,98512.73
2023-01-30T04:46:40.671Z,98501.80
2023-01-30T04:51:44.284Z,98489.59
2023-01-30T04:56:47.902Z,98490.70
2023-01-30T05:01:51.561Z,98463.73
2023-01-30T05:06:55.048Z,98452.19
2023-01-30T05:11:58.876Z,98443.38
2023-01-30T05:17:02.461Z,98434.62
2023-01-30T05:22:06.098Z,98410.21
2023-01-30T05:27:09.913Z,98394.77
2023-01-30T05:32:15.186Z,98393.75
2023-01-30T05:37:18.703Z,98387.48
2023-01-30T05:42:22.200Z,98373.88
2023-01-30T05:47:25.720Z,98373.65
2023-01-30T05:52:29.236Z,98362.07
2023-01-30T05:57:32.754Z,98350.27
2023-01-30T06:02:36.403Z,98344.42
2023-01-30T06:07:40.189Z,98331.23
2023-01-30T06:12:43.685Z,98336.46
2023-01-30T06:17:47.119Z,98323.21
2023-01-30T06:22:51.147Z,98312.64
2023-01-30T06:27:54.668Z,98302.32
2023-01-30T06:32:58.082Z,98284.52
2023-01-30T06:38:01.590Z,98276.42
2023-01-30T06:43:05.936Z,98272.98
2023-01-30T06:48:10.266Z,98252.33
2023-01-30T06:53:13.574Z,98257.61
2023-01-30T06:58:17.087Z,98253.30
2023-01-30T07:03:20.619Z,98236.36
2023-01-30T07:08:24.494Z,98227.05
2023-01-30T07:13:28.150Z,98230.73
2023-01-30T07:18:31.763Z,98219.33
2023-01-30T07:23:36.312Z,98216.52
2023-01-30T07:28:39.513Z,98210.96
2023-01-30T07:33:43.129Z,98216.77
2023-01-30T07:38:49.841Z,98208.75
2023-01-30T07:43:53.548Z,98214.04
2023-01-30T07:48:58.981Z,98205.73
2023-01-30T07:54:04.282Z,98201.39
2023-01-30T07:59:08.078Z,98201.72
2023-01-30T08:04:11.603Z,98202.80
2023-01-30T08:09:15.220Z,98186.86
2023-01-30T08:14:18.833Z,98195.59
2023-01-30T08:19:22.451Z,98183.23
2023-01-30T08:24:26.067Z,98168.65
2023-01-30T08:29:30.196Z,98159.94
2023-01-30T08:34:33.922Z,98162.65
2023-01-30T08:39:37.429Z,98169.29
2023-01-30T08:44:41.052Z,98155.70
2023-01-30T08:49:44.671Z,98159.20
2023-01-30T08:54:48.314Z,98135.69
2023-01-30T08:59:52.530Z,98148.91
2023-01-30T09:04:56.037Z,98136.41
2023-01-30T09:09:59.564Z,98147.30
2023-01-30T09:15:03.393Z,98134.48
2023-01-30T09:20:08.694Z,98128.84
2023-01-30T09:25:12.348Z,98130.05
2023-01-30T09:30:17.065Z,98133.64
2023-01-30T09:35:20.709Z,98129.75
2023-01-30T09:40:29.462Z,98123.84
2023-01-30T09:46:02.832Z,98117.40
2023-01-30T09:51:21.656Z,98126.73
2023-01-30T09:56:25.665Z,98123.27
2023-01-30T10:01:48.538Z,98110.48
2023-01-30T10:06:59.529Z,98103.73
2023-01-30T10:12:17.067Z,98104.34
2023-01-30T10:17:37.172Z,98104.33
2023-01-30T10:23:02.602Z,98087.45
2023-01-30T10:28:18.716Z,98081.60
2023-01-30T10:33:30.628Z,98070.41
2023-01-30T10:38:42.238Z,98067.48
2023-01-30T10:43:55.065Z,98074.63
2023-01-30T10:49:01.649Z,98075.17
2023-01-30T10:54:38.041Z,98068.08
2023-01-30T10:59:56.611Z,98070.45
2023-01-30T11:05:10.159Z,98068.77
2023-01-30T11:10:26.601Z,98063.66
2023-01-30T11:15:41.471Z,98057.10
2023-01-30T11:20:51.729Z,98045.05
2023-01-30T11:26:10.480Z,98041.20
2023-01-30T11:31:40.010Z,98033.31
2023-01-30T11:36:47.429Z,98026.26
2023-01-30T11:41:53.822Z,98026.53
2023-01-30T11:47:24.265Z,98015.00
2023-01-30T11:52:32.297Z,98006.83
2023-01-30T11:57:51.341Z,97982.25
2023-01-30T12:02:57.981Z,97978.80
2023-01-30T12:08:27.758Z,97972.85
2023-01-30T12:13:45.943Z,97982.82
2023-01-30T12:19:04.007Z,97973.52
2023-01-30T12:24:30.254Z,97968.65
2023-01-30T12:29:56.009Z,97961.67
2023-01-30T12:35:00.128Z,97956.80
2023-01-30T12:40:43.392Z,97951.27
2023-01-30T12:46:11.385Z,97952.61
2023-01-30T12:51:49.810Z,97947.98
2023-01-30T12:57:05.577Z,97952.23
2023-01-30T13:02:51.154Z,97956.94
2023-01-30T13:08:01.395Z,97958.92
2023-01-30T13:13:29.662Z,97959.02
2023-01-30T13:19:07.085Z,97963.14
2023-01-30T13:24:32.461Z,97964.30
2023-01-30T13:29:41.345Z,97955.75
2023-01-30T13:34:48.164Z,97961.09
2023-01-30T13:40:00.198Z,97958.28
2023-01-30T13:45:06.112Z,97945.46
2023-01-30T13:50:35.135Z,97939.03
2023-01-30T13:56:32.789Z,97946.14
2023-01-30T14:02:04.278Z,97949.92
2023-01-30T14:07:39.659Z,97947.33
2023-01-30T14:12:52.265Z,97931.86
2023-01-30T14:17:59.376Z,97934.59
2023-01-30T14:23:05.169Z,97938.96
2023-01-30T14:28:10.604Z,97936.98
2023-01-30T14:33:34.282Z,97928.21
2023-01-30T14:38:40.814Z,97941.14
2023-01-30T14:43:44.343Z,97946.05
2023-01-30T14:49:04.627Z,97946.98
2023-01-30T14:54:17.056Z,97942.02
2023-01-30T14:59:29.565Z,97943.95
2023-01-30T15:04:51.710Z,97950.83
2023-01-30T15:10:20.153Z,97939.70
2023-01-30T15:16:05.270Z,97942.88
2023-01-30T15:21:43.747Z,97950.46
2023-01-30T15:27:11.728Z,97941.84
2023-01-30T15:32:22.719Z,97953.55
2023-01-30T15:37:38.731Z,97964.70
2023-01-30T15:42:54.439Z,97974.96
2023-01-30T15:48:43.002Z,97979.28
2023-01-30T15:53:48.045Z,97990.00
2023-01-30T15:58:59.965Z,97996.79
2023-01-30T16:04:08.298Z,98010.20
2023-01-30T16:09:23.146Z,98016.73
2023-01-30T16:14:26.582Z,98020.95
2023-01-30T16:19:33.419Z,98027.71
2023-01-30T16:24:38.152Z,98046.08
2023-01-30T16:29:52.617Z,98053.30
2023-01-30T16:35:26.966Z,98047.81
2023-01-30T16:40:44.185Z,98052.08
2023-01-30T16:45:47.733Z,98050.98
2023-01-30T16:51:00.210Z,98054.14
2023-01-30T16:56:10.179Z,98069.54
2023-01-30T17:01:13.686Z,98066.63
2023-01-30T17:06:25.735Z,98069.09
2023-01-30T17:11:37.782Z,98064.45
2023-01-30T17:16:43.273Z,98061.39
2023-01-30T17:21:51.435Z,98072.02
2023-01-30T17:27:02.738Z,98071.54
2023-01-30T17:32:12.017Z,98071.02
2023-01-30T17:37:21.625Z,98073.77
2023-01-30T17:42:24.983Z,98085.05
2023-01-30T17:47:29.286Z,98083.06
2023-01-30T17:52:32.786Z,98088.23
2023-01-30T17:57:36.199Z,98099.31
2023-01-30T18:02:39.729Z,98079.26
2023-01-30T18:07:44.243Z,98087.39
2023-01-30T18:12:47.453Z,98104.23
2023-01-30T18:17:51.916Z,98099.95
2023-01-30T18:22:55.206Z,98089.29
2023-01-30T18:27:58.725Z,98108.75
2023-01-30T18:33:02.437Z,98114.98
2023-01-30T18:38:06.163Z,98119.36
2023-01-30T18:43:09.776Z,98126.36
2023-01-30T18:48:13.706Z,98133.30
2023-01-30T18:53:17.731Z,98131.67
2023-01-30T18:58:21.149Z,98137.34
2023-01-30T19:03:26.023Z,98148.02
2023-01-30T19:08:31.495Z,98149.86
2023-01-30T19:13:36.913Z,98162.20
2023-01-30T19:18:40.443Z,98164.27
2023-01-30T19:23:44.153Z,98166.16
2023-01-30T19:28:48.490Z,98170.98
2023-01-30T19:33:58.881Z,98176.52
2023-01-30T19:39:04.027Z,98177.91
2023-01-30T19:44:08.755Z,98182.90
2023-01-30T19:49:16.041Z,98176.45
2023-01-30T19:54:20.806Z,98179.75
2023-01-30T19:59:24.221Z,98179.55
2023-01-30T20:04:30.632Z,98184.90
2023-01-30T20:09:35.878Z,98190.70
2023-01-30T20:14:39.581Z,98190.49
2023-01-30T20:19:43.097Z,98194.52
2023-01-30T20:24:47.838Z,98185.30
2023-01-30T20:29:51.358Z,98193.52
2023-01-30T20:34:54.973Z,98202.20
2023-01-30T20:39:58.594Z,98205.70
2023-01-30T20:45:03.556Z,98214.46
2023-01-30T20:50:07.688Z,98221.60
2023-01-30T20:55:11.396Z,98228.62
2023-01-30T21:00:15.317Z,98233.23
2023-01-30T21:05:19.761Z,98231.88
2023-01-30T21:10:25.396Z,98238.02
2023-01-30T21:15:29.039Z,98235.41
2023-01-30T21:20:32.467Z,98241.29
2023-01-30T21:25:36.945Z,98237.14
2023-01-30T21:30:42.241Z,98253.80
2023-01-30T21:35:45.967Z,98267.33
2023-01-30T21:41:12.231Z,98270.26
2023-01-30T21:46:17.118Z,98272.04
2023-01-30T21:51:21.823Z,98279.98
2023-01-30T21:56:27.054Z,98276.34
2023-01-30T22:01:30.609Z,98285.15
2023-01-30T22:06:34.200Z,98288.33
2023-01-30T22:11:38.020Z,98298.56
2023-01-30T22:16:42.356Z,98301.45
2023-01-30T22:21:45.776Z,98315.35
2023-01-30T22:26:50.839Z,98331.52
2023-01-30T22:31:55.022Z,98329.51
2023-01-30T22:36:58.467Z,98352.11
2023-01-30T22:42:03.331Z,98347.98
2023-01-30T22:47:06.886Z,98354.25
2023-01-30T22:52:10.442Z,98362.37
2023-01-30T22:57:13.958Z,98372.77
2023-01-30T23:02:17.605Z,98369.73
2023-01-30T23:07:22.537Z,98376.23
2023-01-30T23:12:44.683Z,98377.52
2023-01-30T23:18:06.733Z,98394.81
2023-01-30T23:23:10.350Z,98394.42
2023-01-30T23:28:13.964Z,98391.85
2023-01-30T23:33:17.586Z,98400.94
2023-01-30T23:38:22.227Z,98403.08
2023-01-30T23:43:25.738Z,98419.17
2023-01-30T23:48:29.262Z,98417.02
2023-01-30T23:53:33.592Z,98416.54
2023-01-30T23:58:37.419Z,98415.96
